createdAt,value
2018-08-16T00:00:43.355Z,1015.47
2018-08-16T00:01:43.361Z,1015.48
2018-08-16T00:02:43.363Z,1015.46
2018-08-16T00:03:43.365Z,1015.48
2018-08-16T00:04:43.359Z,1015.50
2018-08-16T00:05:43.360Z,1015.48
2018-08-16T00:06:43.360Z,1015.46
2018-08-16T00:07:43.362Z,1015.44
2018-08-16T00:08:43.359Z,1015.41
2018-08-16T00:09:43.359Z,1015.44
2018-08-16T00:10:43.361Z,1015.45
2018-08-16T00:11:43.362Z,1015.45
2018-08-16T00:12:43.359Z,1015.44
2018-08-16T00:13:43.359Z,1015.45
2018-08-16T00:14:43.358Z,1015.46
2018-08-16T00:15:43.359Z,1015.47
2018-08-16T00:16:43.361Z,1015.45
2018-08-16T00:17:43.361Z,1015.49
2018-08-16T00:18:43.359Z,1015.47
2018-08-16T00:19:43.361Z,1015.48
2018-08-16T00:20:43.367Z,1015.45
2018-08-16T00:21:43.360Z,1015.46
2018-08-16T00:22:43.363Z,1015.48
2018-08-16T00:23:43.360Z,1015.45
2018-08-16T00:24:43.360Z,1015.47
2018-08-16T00:25:43.362Z,1015.45
2018-08-16T00:26:43.363Z,1015.40
2018-08-16T00:27:43.364Z,1015.42
2018-08-16T00:28:43.363Z,1015.42
2018-08-16T00:29:43.360Z,1015.44
2018-08-16T00:30:43.360Z,1015.41
2018-08-16T00:31:43.360Z,1015.43
2018-08-16T00:32:43.364Z,1015.45
2018-08-16T00:33:43.365Z,1015.46
2018-08-16T00:34:43.361Z,1015.43
2018-08-16T00:35:43.358Z,1015.45
2018-08-16T00:36:43.361Z,1015.43
2018-08-16T00:37:43.361Z,1015.44
2018-08-16T00:38:43.361Z,1015.41
2018-08-16T00:39:43.360Z,1015.41
2018-08-16T00:40:43.362Z,1015.41
2018-08-16T00:41:43.360Z,1015.43
2018-08-16T00:42:43.361Z,1015.40
2018-08-16T00:43:43.360Z,1015.41
2018-08-16T00:44:43.361Z,1015.40
2018-08-16T00:45:43.361Z,1015.39
2018-08-16T00:46:43.360Z,1015.38
2018-08-16T00:47:43.361Z,1015.36
2018-08-16T00:48:43.360Z,1015.38
2018-08-16T00:49:43.369Z,1015.37
2018-08-16T00:50:43.361Z,1015.41
2018-08-16T00:51:43.361Z,1015.41
2018-08-16T00:52:43.401Z,1015.39
2018-08-16T00:53:43.360Z,1015.41
2018-08-16T00:54:43.361Z,1015.35
2018-08-16T00:55:43.361Z,1015.37
2018-08-16T00:56:43.358Z,1015.35
2018-08-16T00:57:43.361Z,1015.35
2018-08-16T00:58:43.358Z,1015.38
2018-08-16T00:59:43.357Z,1015.39
2018-08-16T01:00:43.359Z,1015.34
2018-08-16T01:01:43.364Z,1015.38
2018-08-16T01:02:43.360Z,1015.34
2018-08-16T01:03:43.361Z,1015.35
2018-08-16T01:04:43.358Z,1015.34
2018-08-16T01:05:43.359Z,1015.38
2018-08-16T01:06:43.358Z,1015.35
2018-08-16T01:07:43.360Z,1015.37
2018-08-16T01:08:43.359Z,1015.32
2018-08-16T01:09:43.364Z,1015.36
2018-08-16T01:10:43.362Z,1015.34
2018-08-16T01:11:43.358Z,1015.33
2018-08-16T01:12:43.362Z,1015.35
2018-08-16T01:13:43.359Z,1015.29
2018-08-16T01:14:43.365Z,1015.32
2018-08-16T01:15:43.364Z,1015.29
2018-08-16T01:16:43.358Z,1015.29
2018-08-16T01:17:43.361Z,1015.28
2018-08-16T01:18:43.360Z,1015.29
2018-08-16T01:19:43.361Z,1015.28
2018-08-16T01:20:43.356Z,1015.29
2018-08-16T01:21:43.360Z,1015.29
2018-08-16T01:22:43.359Z,1015.29
2018-08-16T01:23:43.354Z,1015.26
2018-08-16T01:24:43.356Z,1015.26
2018-08-16T01:25:43.359Z,1015.28
2018-08-16T01:26:43.358Z,1015.29
2018-08-16T01:27:43.359Z,1015.30
2018-08-16T01:28:43.356Z,1015.28
2018-08-16T01:29:43.362Z,1015.31
2018-08-16T01:30:43.359Z,1015.30
2018-08-16T01:31:43.405Z,1015.28
2018-08-16T01:32:43.357Z,1015.27
2018-08-16T01:33:43.363Z,1015.30
2018-08-16T01:34:43.368Z,1015.29
2018-08-16T01:35:43.456Z,1015.28
2018-08-16T01:36:43.358Z,1015.30
2018-08-16T01:37:43.359Z,1015.30
2018-08-16T01:38:43.360Z,1015.34
2018-08-16T01:39:43.359Z,1015.32
2018-08-16T01:40:43.360Z,1015.36
2018-08-16T01:41:43.358Z,1015.36
2018-08-16T01:42:43.360Z,1015.34
2018-08-16T01:43:43.360Z,1015.37
2018-08-16T01:44:43.355Z,1015.35
2018-08-16T01:45:43.357Z,1015.36
2018-08-16T01:46:43.361Z,1015.36
2018-08-16T01:47:43.359Z,1015.31
2018-08-16T01:48:43.359Z,1015.30
2018-08-16T01:49:43.359Z,1015.32
2018-08-16T01:50:43.360Z,1015.31
2018-08-16T01:51:43.357Z,1015.32
2018-08-16T01:52:43.357Z,1015.35
2018-08-16T01:53:43.356Z,1015.34
2018-08-16T01:54:43.358Z,1015.35
2018-08-16T01:55:43.358Z,1015.37
2018-08-16T01:56:43.356Z,1015.37
2018-08-16T01:57:43.361Z,1015.38
2018-08-16T01:58:43.359Z,1015.31
2018-08-16T01:59:43.355Z,1015.35
2018-08-16T02:00:43.355Z,1015.38
2018-08-16T02:01:43.356Z,1015.31
2018-08-16T02:02:43.357Z,1015.33
2018-08-16T02:03:43.358Z,1015.34
2018-08-16T02:04:43.356Z,1015.33
2018-08-16T02:05:43.361Z,1015.35
2018-08-16T02:06:43.359Z,1015.29
2018-08-16T02:07:43.358Z,1015.31
2018-08-16T02:08:43.354Z,1015.33
2018-08-16T02:09:43.351Z,1015.32
2018-08-16T02:10:43.355Z,1015.31
2018-08-16T02:11:43.353Z,1015.35
2018-08-16T02:12:43.353Z,1015.32
2018-08-16T02:13:43.356Z,1015.33
2018-08-16T02:14:43.357Z,1015.32
2018-08-16T02:15:43.352Z,1015.29
2018-08-16T02:16:43.351Z,1015.33
2018-08-16T02:17:43.352Z,1015.35
2018-08-16T02:18:43.349Z,1015.36
2018-08-16T02:19:43.350Z,1015.31
2018-08-16T02:20:43.348Z,1015.32
2018-08-16T02:21:43.349Z,1015.32
2018-08-16T02:22:43.350Z,1015.34
2018-08-16T02:23:43.348Z,1015.34
2018-08-16T02:24:43.350Z,1015.33
2018-08-16T02:25:43.350Z,1015.34
2018-08-16T02:26:43.346Z,1015.33
2018-08-16T02:27:43.346Z,1015.33
2018-08-16T02:28:43.346Z,1015.33
2018-08-16T02:29:43.348Z,1015.33
2018-08-16T02:30:43.345Z,1015.34
2018-08-16T02:31:43.347Z,1015.34
2018-08-16T02:32:43.345Z,1015.35
2018-08-16T02:33:43.407Z,1015.39
2018-08-16T02:34:43.344Z,1015.37
2018-08-16T02:35:43.341Z,1015.38
2018-08-16T02:36:43.351Z,1015.38
2018-08-16T02:37:43.359Z,1015.37
2018-08-16T02:38:43.342Z,1015.37
2018-08-16T02:39:43.341Z,1015.38
2018-08-16T02:40:43.340Z,1015.36
2018-08-16T02:41:43.344Z,1015.37
2018-08-16T02:42:43.340Z,1015.39
2018-08-16T02:43:43.340Z,1015.35
2018-08-16T02:44:43.338Z,1015.36
2018-08-16T02:45:43.336Z,1015.37
2018-08-16T02:46:43.339Z,1015.34
2018-08-16T02:47:43.337Z,1015.33
2018-08-16T02:48:43.337Z,1015.31
2018-08-16T02:49:43.334Z,1015.33
2018-08-16T02:50:43.358Z,1015.30
2018-08-16T02:51:43.335Z,1015.33
2018-08-16T02:52:43.337Z,1015.32
2018-08-16T02:53:43.332Z,1015.35
2018-08-16T02:54:43.333Z,1015.32
2018-08-16T02:55:43.332Z,1015.30
2018-08-16T02:56:43.332Z,1015.30
2018-08-16T02:57:43.332Z,1015.32
2018-08-16T02:58:43.336Z,1015.32
2018-08-16T02:59:43.330Z,1015.31
2018-08-16T03:00:43.329Z,1015.33
2018-08-16T03:01:43.333Z,1015.33
2018-08-16T03:02:43.333Z,1015.29
2018-08-16T03:03:43.330Z,1015.27
2018-08-16T03:04:43.328Z,1015.27
2018-08-16T03:05:43.328Z,1015.28
2018-08-16T03:06:43.330Z,1015.25
2018-08-16T03:07:43.328Z,1015.25
2018-08-16T03:08:43.326Z,1015.23
2018-08-16T03:09:43.325Z,1015.19
2018-08-16T03:10:43.325Z,1015.26
2018-08-16T03:11:43.328Z,1015.20
2018-08-16T03:12:43.324Z,1015.15
2018-08-16T03:13:43.322Z,1015.21
2018-08-16T03:14:43.323Z,1015.15
2018-08-16T03:15:43.326Z,1015.13
2018-08-16T03:16:43.322Z,1015.16
2018-08-16T03:17:43.323Z,1015.16
2018-08-16T03:18:43.320Z,1015.18
2018-08-16T03:19:43.321Z,1015.13
2018-08-16T03:20:43.323Z,1015.13
2018-08-16T03:21:43.319Z,1015.13
2018-08-16T03:22:43.320Z,1015.11
2018-08-16T03:23:43.319Z,1015.12
2018-08-16T03:24:43.320Z,1015.10
2018-08-16T03:25:43.318Z,1015.11
2018-08-16T03:26:43.318Z,1015.11
2018-08-16T03:27:43.318Z,1015.11
2018-08-16T03:28:43.318Z,1015.13
2018-08-16T03:29:43.317Z,1015.13
2018-08-16T03:30:43.316Z,1015.14
2018-08-16T03:31:43.316Z,1015.16
2018-08-16T03:32:43.313Z,1015.17
2018-08-16T03:33:43.312Z,1015.15
2018-08-16T03:34:43.314Z,1015.16
2018-08-16T03:35:43.310Z,1015.17
2018-08-16T03:36:43.312Z,1015.15
2018-08-16T03:37:43.312Z,1015.15
2018-08-16T03:38:43.311Z,1015.18
2018-08-16T03:39:43.312Z,1015.18
2018-08-16T03:40:43.310Z,1015.21
2018-08-16T03:41:43.308Z,1015.20
2018-08-16T03:42:43.308Z,1015.23
2018-08-16T03:43:43.309Z,1015.23
2018-08-16T03:44:43.307Z,1015.18
2018-08-16T03:45:43.310Z,1015.21
2018-08-16T03:46:43.305Z,1015.20
2018-08-16T03:47:43.305Z,1015.18
2018-08-16T03:48:43.304Z,1015.19
2018-08-16T03:49:43.306Z,1015.17
2018-08-16T03:50:43.310Z,1015.16
2018-08-16T03:51:43.304Z,1015.19
2018-08-16T03:52:43.302Z,1015.18
2018-08-16T03:53:43.300Z,1015.19
2018-08-16T03:54:43.300Z,1015.21
2018-08-16T03:55:43.300Z,1015.20
2018-08-16T03:56:43.301Z,1015.22
2018-08-16T03:57:43.305Z,1015.24
2018-08-16T03:58:43.298Z,1015.26
2018-08-16T03:59:43.299Z,1015.23
2018-08-16T04:00:43.298Z,1015.19
2018-08-16T04:01:43.296Z,1015.16
2018-08-16T04:02:43.295Z,1015.18
2018-08-16T04:03:43.297Z,1015.20
2018-08-16T04:04:43.295Z,1015.25
2018-08-16T04:05:43.295Z,1015.22
2018-08-16T04:06:43.292Z,1015.25
2018-08-16T04:07:43.296Z,1015.23
2018-08-16T04:08:43.291Z,1015.24
2018-08-16T04:09:43.292Z,1015.25
2018-08-16T04:10:43.295Z,1015.27
2018-08-16T04:11:43.291Z,1015.25
2018-08-16T04:12:43.292Z,1015.24
2018-08-16T04:13:43.290Z,1015.25
2018-08-16T04:14:43.289Z,1015.25
2018-08-16T04:15:43.293Z,1015.21
2018-08-16T04:16:43.293Z,1015.28
2018-08-16T04:17:43.288Z,1015.24
2018-08-16T04:18:43.287Z,1015.22
2018-08-16T04:19:43.289Z,1015.24
2018-08-16T04:20:43.286Z,1015.24
2018-08-16T04:21:43.289Z,1015.20
2018-08-16T04:22:43.285Z,1015.26
2018-08-16T04:23:43.340Z,1015.24
2018-08-16T04:24:43.283Z,1015.25
2018-08-16T04:25:43.284Z,1015.25
2018-08-16T04:26:43.287Z,1015.27
2018-08-16T04:27:43.284Z,1015.27
2018-08-16T04:28:43.283Z,1015.28
2018-08-16T04:29:43.283Z,1015.28
2018-08-16T04:30:43.281Z,1015.28
2018-08-16T04:31:43.286Z,1015.27
2018-08-16T04:32:43.284Z,1015.27
2018-08-16T04:33:43.281Z,1015.26
2018-08-16T04:34:43.281Z,1015.26
2018-08-16T04:35:43.284Z,1015.27
2018-08-16T04:36:43.280Z,1015.25
2018-08-16T04:37:43.284Z,1015.22
2018-08-16T04:38:43.280Z,1015.25
2018-08-16T04:39:43.286Z,1015.25
2018-08-16T04:40:43.280Z,1015.25
2018-08-16T04:41:43.422Z,1015.27
2018-08-16T04:42:43.279Z,1015.26
2018-08-16T04:43:43.280Z,1015.26
2018-08-16T04:44:43.278Z,1015.26
2018-08-16T04:45:43.278Z,1015.28
2018-08-16T04:46:43.280Z,1015.29
2018-08-16T04:47:43.277Z,1015.27
2018-08-16T04:48:43.277Z,1015.30
2018-08-16T04:49:43.275Z,1015.30
2018-08-16T04:50:43.279Z,1015.31
2018-08-16T04:51:43.277Z,1015.30
2018-08-16T04:52:43.278Z,1015.32
2018-08-16T04:53:43.276Z,1015.35
2018-08-16T04:54:43.277Z,1015.37
2018-08-16T04:55:43.276Z,1015.37
2018-08-16T04:56:43.312Z,1015.38
2018-08-16T04:57:43.276Z,1015.43
2018-08-16T04:58:43.277Z,1015.41
2018-08-16T04:59:43.277Z,1015.43
2018-08-16T05:00:43.276Z,1015.47
2018-08-16T05:01:43.274Z,1015.46
2018-08-16T05:02:43.277Z,1015.41
2018-08-16T05:03:43.282Z,1015.42
2018-08-16T05:04:43.276Z,1015.44
2018-08-16T05:05:43.274Z,1015.45
2018-08-16T05:06:43.277Z,1015.49
2018-08-16T05:07:43.280Z,1015.52
2018-08-16T05:08:43.280Z,1015.51
2018-08-16T05:09:43.278Z,1015.44
2018-08-16T05:10:43.281Z,1015.48
2018-08-16T05:11:43.279Z,1015.45
2018-08-16T05:12:43.278Z,1015.46
2018-08-16T05:13:43.280Z,1015.48
2018-08-16T05:14:43.282Z,1015.43
2018-08-16T05:15:43.282Z,1015.46
2018-08-16T05:16:43.284Z,1015.45
2018-08-16T05:17:43.285Z,1015.46
2018-08-16T05:18:43.284Z,1015.46
2018-08-16T05:19:43.287Z,1015.46
2018-08-16T05:20:43.288Z,1015.47
2018-08-16T05:21:43.292Z,1015.48
2018-08-16T05:22:43.290Z,1015.49
2018-08-16T05:23:43.339Z,1015.47
2018-08-16T05:24:43.292Z,1015.48
2018-08-16T05:25:43.292Z,1015.48
2018-08-16T05:26:43.296Z,1015.45
2018-08-16T05:27:43.298Z,1015.47
2018-08-16T05:28:43.300Z,1015.44
2018-08-16T05:29:43.300Z,1015.41
2018-08-16T05:30:43.306Z,1015.40
2018-08-16T05:31:43.323Z,1015.41
2018-08-16T05:32:43.307Z,1015.42
2018-08-16T05:33:43.309Z,1015.41
2018-08-16T05:34:43.311Z,1015.41
2018-08-16T05:35:43.312Z,1015.41
2018-08-16T05:36:43.315Z,1015.40
2018-08-16T05:37:43.316Z,1015.39
2018-08-16T05:38:43.319Z,1015.42
2018-08-16T05:39:43.320Z,1015.42
2018-08-16T05:40:43.323Z,1015.39
2018-08-16T05:41:43.326Z,1015.35
2018-08-16T05:42:43.327Z,1015.34
2018-08-16T05:43:43.331Z,1015.37
2018-08-16T05:44:43.335Z,1015.38
2018-08-16T05:45:43.341Z,1015.37
2018-08-16T05:46:43.338Z,1015.35
2018-08-16T05:47:43.345Z,1015.34
2018-08-16T05:48:43.344Z,1015.33
2018-08-16T05:49:43.346Z,1015.32
2018-08-16T05:50:43.368Z,1015.33
2018-08-16T05:51:43.358Z,1015.32
2018-08-16T05:52:43.355Z,1015.33
2018-08-16T05:53:43.360Z,1015.37
2018-08-16T05:54:43.363Z,1015.33
2018-08-16T05:55:43.374Z,1015.35
2018-08-16T05:56:43.370Z,1015.32
2018-08-16T05:57:43.373Z,1015.31
2018-08-16T05:58:43.378Z,1015.32
2018-08-16T05:59:43.377Z,1015.28
2018-08-16T06:00:43.384Z,1015.30
2018-08-16T06:01:43.387Z,1015.29
2018-08-16T06:02:43.392Z,1015.31
2018-08-16T06:03:43.397Z,1015.35
2018-08-16T06:04:43.399Z,1015.31
2018-08-16T06:05:43.401Z,1015.31
2018-08-16T06:06:43.411Z,1015.31
2018-08-16T06:07:43.486Z,1015.32
2018-08-16T06:08:43.414Z,1015.31
2018-08-16T06:09:43.419Z,1015.31
2018-08-16T06:10:43.425Z,1015.31
2018-08-16T06:11:43.429Z,1015.30
2018-08-16T06:12:43.432Z,1015.30
2018-08-16T06:13:43.439Z,1015.26
2018-08-16T06:14:43.441Z,1015.30
2018-08-16T06:15:43.448Z,1015.31
2018-08-16T06:16:43.454Z,1015.28
2018-08-16T06:17:43.453Z,1015.29
2018-08-16T06:18:43.461Z,1015.28
2018-08-16T06:19:43.467Z,1015.29
2018-08-16T06:20:43.470Z,1015.28
2018-08-16T06:21:43.475Z,1015.26
2018-08-16T06:22:43.481Z,1015.25
2018-08-16T06:23:43.487Z,1015.23
2018-08-16T06:24:43.494Z,1015.21
2018-08-16T06:25:43.502Z,1015.25
2018-08-16T06:26:43.498Z,1015.26
2018-08-16T06:27:43.506Z,1015.22
2018-08-16T06:28:43.512Z,1015.25
2018-08-16T06:29:43.517Z,1015.24
2018-08-16T06:30:43.523Z,1015.25
2018-08-16T06:31:43.688Z,1015.27
2018-08-16T06:32:43.533Z,1015.27
2018-08-16T06:33:43.546Z,1015.28
2018-08-16T06:34:43.595Z,1015.28
2018-08-16T06:35:43.548Z,1015.25
2018-08-16T06:36:43.560Z,1015.23
2018-08-16T06:37:43.568Z,1015.23
2018-08-16T06:38:43.616Z,1015.25
2018-08-16T06:39:43.580Z,1015.23
2018-08-16T06:40:43.582Z,1015.22
2018-08-16T06:41:43.587Z,1015.22
2018-08-16T06:42:43.590Z,1015.21
2018-08-16T06:43:43.606Z,1015.23
2018-08-16T06:44:43.603Z,1015.20
2018-08-16T06:45:43.610Z,1015.22
2018-08-16T06:46:43.617Z,1015.18
2018-08-16T06:47:43.621Z,1015.16
2018-08-16T06:48:43.628Z,1015.17
2018-08-16T06:49:43.633Z,1015.17
2018-08-16T06:50:43.643Z,1015.13
2018-08-16T06:51:43.650Z,1015.16
2018-08-16T06:52:43.735Z,1015.12
2018-08-16T06:53:43.663Z,1015.13
2018-08-16T06:54:43.666Z,1015.15
2018-08-16T06:55:43.940Z,1015.17
2018-08-16T06:56:43.684Z,1015.14
2018-08-16T06:57:43.688Z,1015.15
2018-08-16T06:58:43.703Z,1015.15
2018-08-16T06:59:43.703Z,1015.12
2018-08-16T07:00:43.708Z,1015.13
2018-08-16T07:01:43.714Z,1015.11
2018-08-16T07:02:43.722Z,1015.12
2018-08-16T07:03:43.726Z,1015.10
2018-08-16T07:04:43.754Z,1015.10
2018-08-16T07:05:43.744Z,1015.10
2018-08-16T07:06:43.775Z,1015.11
2018-08-16T07:07:43.752Z,1015.12
2018-08-16T07:08:43.772Z,1015.13
2018-08-16T07:09:43.771Z,1015.13
2018-08-16T07:10:43.777Z,1015.12
2018-08-16T07:11:43.783Z,1015.12
2018-08-16T07:12:43.790Z,1015.09
2018-08-16T07:13:43.798Z,1015.12
2018-08-16T07:14:43.806Z,1015.13
2018-08-16T07:15:43.815Z,1015.15
2018-08-16T07:16:43.821Z,1015.16
2018-08-16T07:17:43.826Z,1015.16
2018-08-16T07:18:43.939Z,1015.18
2018-08-16T07:19:43.842Z,1015.20
2018-08-16T07:20:43.847Z,1015.20
2018-08-16T07:21:43.857Z,1015.15
2018-08-16T07:22:43.865Z,1015.14
2018-08-16T07:23:43.870Z,1015.14
2018-08-16T07:24:43.936Z,1015.13
2018-08-16T07:25:43.885Z,1015.09
2018-08-16T07:26:43.894Z,1015.10
2018-08-16T07:27:43.902Z,1015.10
2018-08-16T07:28:43.910Z,1015.08
2018-08-16T07:29:43.918Z,1015.11
2018-08-16T07:30:43.921Z,1015.10
2018-08-16T07:31:43.931Z,1015.09
2018-08-16T07:32:43.938Z,1015.09
2018-08-16T07:33:43.948Z,1015.09
2018-08-16T07:34:43.956Z,1015.09
2018-08-16T07:35:43.969Z,1015.10
2018-08-16T07:36:43.974Z,1015.11
2018-08-16T07:37:43.985Z,1015.10
2018-08-16T07:38:43.989Z,1015.10
2018-08-16T07:39:44.025Z,1015.11
2018-08-16T07:40:44.002Z,1015.12
2018-08-16T07:41:44.013Z,1015.12
2018-08-16T07:42:44.020Z,1015.11
2018-08-16T07:43:44.028Z,1015.13
2018-08-16T07:44:44.039Z,1015.12
2018-08-16T07:45:44.200Z,1015.12
2018-08-16T07:46:44.057Z,1015.13
2018-08-16T07:47:44.066Z,1015.08
2018-08-16T07:48:44.089Z,1015.11
2018-08-16T07:49:44.114Z,1015.14
2018-08-16T07:50:44.087Z,1015.12
2018-08-16T07:51:44.364Z,1015.17
2018-08-16T07:52:44.328Z,1015.16
2018-08-16T07:53:44.109Z,1015.17
2018-08-16T07:54:44.126Z,1015.16
2018-08-16T07:55:44.128Z,1015.13
2018-08-16T07:56:44.283Z,1015.15
2018-08-16T07:57:44.164Z,1015.13
2018-08-16T07:58:44.154Z,1015.19
2018-08-16T07:59:44.162Z,1015.17
2018-08-16T08:00:44.170Z,1015.15
2018-08-16T08:01:44.183Z,1015.12
2018-08-16T08:02:44.192Z,1015.16
2018-08-16T08:03:44.197Z,1015.16
2018-08-16T08:04:44.207Z,1015.16
2018-08-16T08:05:44.213Z,1015.15
2018-08-16T08:06:44.224Z,1015.12
2018-08-16T08:07:44.239Z,1015.12
2018-08-16T08:08:44.257Z,1015.10
2018-08-16T08:09:44.261Z,1015.08
2018-08-16T08:10:44.260Z,1015.14
2018-08-16T08:11:44.266Z,1015.18
2018-08-16T08:12:44.280Z,1015.15
2018-08-16T08:13:44.286Z,1015.15
2018-08-16T08:14:44.292Z,1015.15
2018-08-16T08:15:44.299Z,1015.17
2018-08-16T08:16:44.314Z,1015.16
2018-08-16T08:17:44.316Z,1015.18
2018-08-16T08:18:44.327Z,1015.16
2018-08-16T08:19:44.333Z,1015.14
2018-08-16T08:20:44.346Z,1015.14
2018-08-16T08:21:44.361Z,1015.11
2018-08-16T08:22:44.359Z,1015.10
2018-08-16T08:23:44.371Z,1015.11
2018-08-16T08:24:44.377Z,1015.12
2018-08-16T08:25:44.386Z,1015.08
2018-08-16T08:26:44.392Z,1015.08
2018-08-16T08:27:44.406Z,1015.10
2018-08-16T08:28:44.477Z,1015.10
2018-08-16T08:29:44.420Z,1015.09
2018-08-16T08:30:44.430Z,1015.10
2018-08-16T08:31:44.496Z,1015.10
2018-08-16T08:32:44.451Z,1015.10
2018-08-16T08:33:44.475Z,1015.07
2018-08-16T08:34:44.470Z,1015.05
2018-08-16T08:35:44.478Z,1014.98
2018-08-16T08:36:44.483Z,1014.86
2018-08-16T08:37:44.496Z,1014.81
2018-08-16T08:38:44.692Z,1014.82
2018-08-16T08:39:44.514Z,1014.81
2018-08-16T08:40:44.529Z,1014.82
2018-08-16T08:41:44.535Z,1014.80
2018-08-16T08:42:44.619Z,1014.79
2018-08-16T08:43:44.553Z,1014.78
2018-08-16T08:44:44.558Z,1014.78
2018-08-16T08:45:44.785Z,1014.75
2018-08-16T08:46:44.574Z,1014.71
2018-08-16T08:47:44.584Z,1014.71
2018-08-16T08:48:44.774Z,1014.71
2018-08-16T08:49:44.600Z,1014.74
2018-08-16T08:50:44.610Z,1014.73
2018-08-16T08:51:44.616Z,1014.70
2018-08-16T08:52:44.620Z,1014.75
2018-08-16T08:53:44.630Z,1014.74
2018-08-16T08:54:44.638Z,1014.71
2018-08-16T08:55:44.644Z,1014.72
2018-08-16T08:56:44.815Z,1014.70
2018-08-16T08:57:44.662Z,1014.68
2018-08-16T08:58:44.667Z,1014.73
2018-08-16T08:59:44.673Z,1014.74
2018-08-16T09:00:44.679Z,1014.60
2018-08-16T09:01:44.684Z,1014.62
2018-08-16T09:02:44.691Z,1014.66
2018-08-16T09:03:44.702Z,1014.63
2018-08-16T09:04:44.705Z,1014.63
2018-08-16T09:05:44.710Z,1014.62
2018-08-16T09:06:44.750Z,1014.59
2018-08-16T09:07:44.719Z,1014.57
2018-08-16T09:08:44.730Z,1014.59
2018-08-16T09:09:44.737Z,1014.61
2018-08-16T09:10:44.740Z,1014.58
2018-08-16T09:11:44.747Z,1014.57
2018-08-16T09:12:44.753Z,1014.58
2018-08-16T09:13:44.773Z,1014.54
2018-08-16T09:14:44.795Z,1014.53
2018-08-16T09:15:44.774Z,1014.55
2018-08-16T09:16:44.783Z,1014.51
2018-08-16T09:17:44.782Z,1014.48
2018-08-16T09:18:44.787Z,1014.51
2018-08-16T09:19:44.884Z,1014.53
2018-08-16T09:20:44.803Z,1014.50
2018-08-16T09:21:44.803Z,1014.46
2018-08-16T09:22:44.808Z,1014.48
2018-08-16T09:23:44.815Z,1014.45
2018-08-16T09:24:44.858Z,1014.41
2018-08-16T09:25:44.823Z,1014.43
2018-08-16T09:26:44.830Z,1014.42
2018-08-16T09:27:44.847Z,1014.46
2018-08-16T09:28:44.929Z,1014.42
2018-08-16T09:29:44.850Z,1014.38
2018-08-16T09:30:44.854Z,1014.36
2018-08-16T09:31:44.980Z,1014.41
2018-08-16T09:32:44.871Z,1014.38
2018-08-16T09:33:44.868Z,1014.40
2018-08-16T09:34:44.873Z,1014.34
2018-08-16T09:35:44.879Z,1014.38
2018-08-16T09:36:44.885Z,1014.39
2018-08-16T09:37:44.958Z,1014.31
2018-08-16T09:38:44.900Z,1014.34
2018-08-16T09:39:45.004Z,1014.35
2018-08-16T09:40:45.052Z,1014.36
2018-08-16T09:41:44.910Z,1014.34
2018-08-16T09:42:44.916Z,1014.33
2018-08-16T09:43:44.919Z,1014.31
2018-08-16T09:44:44.928Z,1014.28
2018-08-16T09:45:44.993Z,1014.30
2018-08-16T09:46:44.939Z,1014.31
2018-08-16T09:47:44.950Z,1014.28
2018-08-16T09:48:44.951Z,1014.28
2018-08-16T09:49:44.956Z,1014.30
2018-08-16T09:50:44.958Z,1014.29
2018-08-16T09:51:45.038Z,1014.29
2018-08-16T09:52:44.967Z,1014.26
2018-08-16T09:53:44.973Z,1014.27
2018-08-16T09:54:44.977Z,1014.26
2018-08-16T09:55:44.982Z,1014.22
2018-08-16T09:56:44.989Z,1014.23
2018-08-16T09:57:44.990Z,1014.22
2018-08-16T09:58:45.005Z,1014.21
2018-08-16T09:59:45.011Z,1014.16
2018-08-16T10:00:45.019Z,1014.14
2018-08-16T10:01:45.013Z,1014.11
2018-08-16T10:02:45.022Z,1014.14
2018-08-16T10:03:45.023Z,1014.10
2018-08-16T10:04:45.032Z,1014.10
2018-08-16T10:05:45.031Z,1014.12
2018-08-16T10:06:45.041Z,1014.07
2018-08-16T10:07:45.046Z,1014.07
2018-08-16T10:08:45.051Z,1014.14
2018-08-16T10:09:45.055Z,1014.13
2018-08-16T10:10:45.071Z,1014.12
2018-08-16T10:11:45.065Z,1014.06
2018-08-16T10:12:45.079Z,1014.03
2018-08-16T10:13:45.074Z,1013.99
2018-08-16T10:14:45.080Z,1013.97
2018-08-16T10:15:45.088Z,1013.92
2018-08-16T10:16:45.091Z,1013.93
2018-08-16T10:17:45.098Z,1013.93
2018-08-16T10:18:45.099Z,1013.92
2018-08-16T10:19:45.111Z,1013.88
2018-08-16T10:20:45.174Z,1013.86
2018-08-16T10:21:45.119Z,1013.90
2018-08-16T10:22:45.119Z,1013.87
2018-08-16T10:23:45.123Z,1013.84
2018-08-16T10:24:45.125Z,1013.87
2018-08-16T10:25:45.142Z,1013.79
2018-08-16T10:26:45.140Z,1013.76
2018-08-16T10:27:45.144Z,1013.71
2018-08-16T10:28:45.148Z,1013.74
2018-08-16T10:29:45.154Z,1013.76
2018-08-16T10:30:45.167Z,1013.73
2018-08-16T10:31:45.164Z,1013.78
2018-08-16T10:32:45.171Z,1013.77
2018-08-16T10:33:45.179Z,1013.77
2018-08-16T10:34:45.180Z,1013.70
2018-08-16T10:35:45.187Z,1013.76
2018-08-16T10:36:45.192Z,1013.73
2018-08-16T10:37:45.195Z,1013.75
2018-08-16T10:38:45.201Z,1013.78
2018-08-16T10:39:45.205Z,1013.79
2018-08-16T10:40:45.228Z,1013.72
2018-08-16T10:41:45.219Z,1013.76
2018-08-16T10:42:45.221Z,1013.76
2018-08-16T10:43:45.227Z,1013.75
2018-08-16T10:44:45.229Z,1013.77
2018-08-16T10:45:45.232Z,1013.77
2018-08-16T10:46:45.248Z,1013.81
2018-08-16T10:47:45.246Z,1013.75
2018-08-16T10:48:45.254Z,1013.72
2018-08-16T10:49:45.260Z,1013.77
2018-08-16T10:50:45.255Z,1013.74
2018-08-16T10:51:45.282Z,1013.72
2018-08-16T10:52:45.279Z,1013.69
2018-08-16T10:53:45.275Z,1013.69
2018-08-16T10:54:45.354Z,1013.73
2018-08-16T10:55:45.285Z,1013.74
2018-08-16T10:56:45.297Z,1013.70
2018-08-16T10:57:45.291Z,1013.73
2018-08-16T10:58:45.332Z,1013.71
2018-08-16T10:59:45.310Z,1013.70
2018-08-16T11:00:45.306Z,1013.65
2018-08-16T11:01:45.318Z,1013.66
2018-08-16T11:02:45.322Z,1013.64
2018-08-16T11:03:45.326Z,1013.62
2018-08-16T11:04:45.332Z,1013.61
2018-08-16T11:05:45.396Z,1013.55
2018-08-16T11:06:45.343Z,1013.49
2018-08-16T11:07:45.461Z,1013.56
2018-08-16T11:08:45.350Z,1013.51
2018-08-16T11:09:45.356Z,1013.50
2018-08-16T11:10:45.360Z,1013.46
2018-08-16T11:11:45.418Z,1013.45
2018-08-16T11:12:45.371Z,1013.49
2018-08-16T11:13:45.383Z,1013.51
2018-08-16T11:14:45.389Z,1013.49
2018-08-16T11:15:45.389Z,1013.51
2018-08-16T11:16:45.440Z,1013.48
2018-08-16T11:17:45.419Z,1013.45
2018-08-16T11:18:45.437Z,1013.50
2018-08-16T11:19:45.449Z,1013.46
2018-08-16T11:20:45.426Z,1013.44
2018-08-16T11:21:45.418Z,1013.41
2018-08-16T11:22:45.425Z,1013.39
2018-08-16T11:23:45.454Z,1013.41
2018-08-16T11:24:45.440Z,1013.36
2018-08-16T11:25:45.447Z,1013.39
2018-08-16T11:26:45.451Z,1013.41
2018-08-16T11:27:45.464Z,1013.36
2018-08-16T11:28:45.451Z,1013.35
2018-08-16T11:29:45.514Z,1013.33
2018-08-16T11:30:45.467Z,1013.30
2018-08-16T11:31:45.470Z,1013.26
2018-08-16T11:32:45.566Z,1013.26
2018-08-16T11:33:45.486Z,1013.19
2018-08-16T11:34:45.488Z,1013.26
2018-08-16T11:35:45.490Z,1013.24
2018-08-16T11:36:45.610Z,1013.20
2018-08-16T11:37:45.564Z,1013.19
2018-08-16T11:38:45.506Z,1013.19
2018-08-16T11:39:45.514Z,1013.12
2018-08-16T11:40:45.524Z,1013.13
2018-08-16T11:41:45.522Z,1013.10
2018-08-16T11:42:45.527Z,1013.09
2018-08-16T11:43:45.532Z,1013.11
2018-08-16T11:44:45.536Z,1013.10
2018-08-16T11:45:45.541Z,1013.05
2018-08-16T11:46:45.551Z,1013.12
2018-08-16T11:47:45.552Z,1013.00
2018-08-16T11:48:45.559Z,1013.07
2018-08-16T11:49:45.562Z,1013.01
2018-08-16T11:50:45.625Z,1013.01
2018-08-16T11:51:45.651Z,1013.02
2018-08-16T11:52:45.576Z,1013.02
2018-08-16T11:53:45.632Z,1012.99
2018-08-16T11:54:45.607Z,1013.00
2018-08-16T11:55:45.595Z,1013.00
2018-08-16T11:56:45.601Z,1012.95
2018-08-16T11:57:45.604Z,1013.00
2018-08-16T11:58:45.750Z,1012.94
2018-08-16T11:59:45.620Z,1013.02
2018-08-16T12:00:45.623Z,1013.00
2018-08-16T12:01:45.625Z,1012.98
2018-08-16T12:02:45.643Z,1012.96
2018-08-16T12:03:45.636Z,1012.94
2018-08-16T12:04:45.644Z,1012.91
2018-08-16T12:05:45.649Z,1012.94